Shandaken, NY

6:24 PM EDT on August 30, 2014 (GMT -0400)
Dutchess County | Change Station
CLOSE
Current Station
Airport
Location: Poughkeepsie,
Elevation: 164 ft
Nearby Weather Stations

Elev 164 ft 41.63 °N, 73.88 °W | Updated 1 hour ago

Mostly Cloudy
Mostly Cloudy
78 °F
Feels Like 78 °F
N
6
Wind Variable Wind from South

Today
High -- | Low -- °F
--% Chance of Precip.
Yesterday
High -- | Low -- °F
Precip. -- in
6:20 AM 7:34 PM
Waxing Crescent, 25% visible
Pressure 30.13 in
Visibility 10.0 miles
Clouds Mostly Cloudy 4800 ft
Dew Point 59 °F
Humidity 52%
Rainfall 0.00 in
Snow Depth Not available.
UV 1 out of 12
Pollen 9.00 out of 12
PM2.5 Good
Flu Activity Not available.
METAR KPOU 302053Z COR 18005KT 10SM BKN048 26/15 A3014 RMK AO2 SLP203 T02560150 $

More Conditions Fewer Conditions

Pressure 30.13 in
Visibility 10.0 miles
Clouds Mostly Cloudy 4800 ft
Dew Point 59 °F
Humidity 52%
Rainfall 0.00 in
Snow Depth Not available.
UV 1 out of 12
Pollen 9.00 out of 12
PM2.5 Good
Flu Activity Not available.
METAR KPOU 302053Z COR 18005KT 10SM BKN048 26/15 A3014 RMK AO2 SLP203 T02560150 $

More Conditions Fewer Conditions

10-Day Weather Forecast

Almanac

Astronomy

Aug. 30, 2014 Rise Set
Actual Time 6:20 AM EDT 7:34 PM EDT
Civil Twilight 5:51 AM EDT 8:03 PM EDT
Nautical Twilight 5:17 AM EDT 8:38 PM EDT
Astronomical Twilight 4:40 AM EDT 9:14 PM EDT
Moon 11:11 AM EDT 10:01 PM EDT
Length of Visible Light 14h 11m
Length of Day
13h 13m
Tomorrow will be 2m 43s shorter.
Waxing Crescent, 25% of the Moon is Illuminated
Today
Waxing Crescent
Sep 2
First Quarter
Sep 8
Full
Sep 15
Last Quarter
Sep 24
New

Today's Extremes

State Highs State Lows

Community

WunderPhotos

Upload Photos

1,748,657 photos uploaded!

WunderBlogs® & News

Nearby

Air Quality

  Air Quality AQ Index Pollutant
Yesterday Good
OZONE
Yesterday Good
PM2.5
Current Good
PM2.5
Saturday Good
OZONE
Saturday Good
PM2.5
Sunday Moderate
PM2.5
Sunday Good
OZONE
Monday Moderate
OZONE
Monday Moderate
PM2.5
Tuesday Moderate
OZONE
Tuesday Moderate
PM2.5

Snow Depth

Station Depth Elevation
No new snow has been reported.

Earthquake Activity

City Distance Mag. Time & Date
No recent earthquake activity has been reported nearby.
Minimum magnitude displayed is 2.5.

Coastal Water Temperatures

Place Temperature
No Stations Reporting

Nearby Weather Stations